Portada
METAR-TAF:

METAR-TAF

Aeroports :

Gove Peninsula, Austràlia

latitud: 12-16-12S, longitud: 136-49-06E, altitud: 62 m

Observació

L'informe es va fer fa 36 minuts, a les 08:00 UTC
Vent 8 kt del Nord-Est, variant entre Nord i Est/Nord-Est
Temperatura 29°C
Humitat 62%
Pressió 1011 hPa
Visibilitat 10 km o més
Núvols disperses a una alçada de 2600 ft

METAR: YPGV 120800Z AUTO 05008KT 010V070 9999 // SCT026 29/21 Q1011

Hora: 18:06 (08:36 UTC)

Pronòstic

L'informe es va fer fa 1 hora i 34 minuts, a les 07:02 UTC
Pronòstic vàlid del 12 a les 08 UTC al 12 a les 20 UTC
Vent 10 kt del Est/Nord-Est
Visibilitat 10 km o més
Núvols disperses a una alçada de 2500 ft

TAF: YPGV 120702Z 1208/1220 06010KT 9999 SCT025

Observacions i pronòstics meteorològics de més de 4000 aeroports (METAR i TAF).

Les estacions disponibles són els punts grocs i vermells al mapa.

Posi el ratolí al punt desitjat per veure el nom de l'estació.

Feu clic per veure les observacions i els pronòstics meteorològics.

Per canviar el mapa: feu clic els botons verds amb una creu de color negre per apropar; al botó verd amb un guió per allunyar la imatge; o en les fletxes verdes per a mapes adjacents.


METAR-TAF: